KOMK/OMK METAR and TAF weather

Enter ICAO airport designator
Station Type Date Time Source
KOMK METAR 2020/07/14 15:53 UTC NOAA

KOMK 141553Z AUTO 35010KT 10SM CLR 21/05 A3010 RMK AO2 SLP190 T02110050


Station Type Date Time Source
KOMK Decoded METAR 2020/07/14 15:53 UTC NOAA

OMAK AIRPORT, WA, United States (KOMK) 48-28N 119-31W 395M
Jul 14, 2020 - 11:53 AM EDT / 2020.07.14 1553 UTC
Wind: from the N (350 degrees) at 12 MPH (10 KT):0
Visibility: 10 mile(s):0
Sky conditions: clear
Temperature: 70.0 F (21.1 C)
Dew Point: 41.0 F (5.0 C)
Relative Humidity: 34%
Pressure (altimeter): 30.1 in. Hg (1019 hPa)
ob: KOMK 141553Z AUTO 35010KT 10SM CLR 21/05 A3010 RMK AO2 SLP190 T02110050
cycle: 16

Station Type Date Time Source
KOMK TAF UTC NOAA

Error!

Example: see airport list